sensor_id;sensor_type;location;lat;lon;timestamp;temperature;humidity
7445;DHT22;3764;48.126;11.594;2022-09-27T00:00:11;11.10;99.90
7445;DHT22;3764;48.126;11.594;2022-09-27T00:02:38;11.10;99.90
7445;DHT22;3764;48.126;11.594;2022-09-27T00:05:06;11.10;99.90
7445;DHT22;3764;48.126;11.594;2022-09-27T00:07:33;11.20;99.90
7445;DHT22;3764;48.126;11.594;2022-09-27T00:10:02;11.20;99.90
7445;DHT22;3764;48.126;11.594;2022-09-27T00:12:31;11.20;99.90
7445;DHT22;3764;48.126;11.594;2022-09-27T00:15:14;11.30;99.90
7445;DHT22;3764;48.126;11.594;2022-09-27T00:17:42;11.30;99.90
7445;DHT22;3764;48.126;11.594;2022-09-27T00:20:09;11.30;99.90
7445;DHT22;3764;48.126;11.594;2022-09-27T00:22:37;11.30;99.90
7445;DHT22;3764;48.126;11.594;2022-09-27T00:25:04;11.20;99.90
7445;DHT22;3764;48.126;11.594;2022-09-27T00:27:33;11.20;99.90
7445;DHT22;3764;48.126;11.594;2022-09-27T00:30:00;11.20;99.90
7445;DHT22;3764;48.126;11.594;2022-09-27T00:32:28;11.20;99.90
7445;DHT22;3764;48.126;11.594;2022-09-27T00:34:55;11.20;99.90
7445;DHT22;3764;48.126;11.594;2022-09-27T00:37:22;11.20;99.90
7445;DHT22;3764;48.126;11.594;2022-09-27T00:39:50;11.10;99.90
7445;DHT22;3764;48.126;11.594;2022-09-27T00:42:17;11.20;99.90
7445;DHT22;3764;48.126;11.594;2022-09-27T00:45:05;11.20;99.90
7445;DHT22;3764;48.126;11.594;2022-09-27T00:47:38;11.30;99.90
7445;DHT22;3764;48.126;11.594;2022-09-27T00:50:13;11.30;99.90
7445;DHT22;3764;48.126;11.594;2022-09-27T00:52:49;11.40;99.90
7445;DHT22;3764;48.126;11.594;2022-09-27T00:55:22;11.40;99.90
7445;DHT22;3764;48.126;11.594;2022-09-27T00:57:51;11.40;99.90
7445;DHT22;3764;48.126;11.594;2022-09-27T01:00:20;11.30;99.90
7445;DHT22;3764;48.126;11.594;2022-09-27T01:02:50;11.20;99.90
7445;DHT22;3764;48.126;11.594;2022-09-27T01:05:21;11.20;99.90
7445;DHT22;3764;48.126;11.594;2022-09-27T01:07:49;11.10;99.90
7445;DHT22;3764;48.126;11.594;2022-09-27T01:10:17;11.10;99.90
7445;DHT22;3764;48.126;11.594;2022-09-27T01:12:56;11.00;99.90
7445;DHT22;3764;48.126;11.594;2022-09-27T01:15:31;11.00;99.90
7445;DHT22;3764;48.126;11.594;2022-09-27T01:18:16;10.90;99.90
7445;DHT22;3764;48.126;11.594;2022-09-27T01:24:15;10.90;99.90
7445;DHT22;3764;48.126;11.594;2022-09-27T01:27:02;10.80;99.90
7445;DHT22;3764;48.126;11.594;2022-09-27T01:29:42;10.80;99.90
7445;DHT22;3764;48.126;11.594;2022-09-27T01:32:25;10.90;99.90
7445;DHT22;3764;48.126;11.594;2022-09-27T01:35:02;10.90;99.90
7445;DHT22;3764;48.126;11.594;2022-09-27T01:37:37;10.80;99.90
7445;DHT22;3764;48.126;11.594;2022-09-27T01:40:11;10.80;99.90
7445;DHT22;3764;48.126;11.594;2022-09-27T01:42:46;10.80;99.90
7445;DHT22;3764;48.126;11.594;2022-09-27T01:45:18;10.80;99.90
7445;DHT22;3764;48.126;11.594;2022-09-27T01:47:52;10.80;99.90
7445;DHT22;3764;48.126;11.594;2022-09-27T01:50:23;10.80;99.90
7445;DHT22;3764;48.126;11.594;2022-09-27T01:52:58;10.80;99.90
7445;DHT22;3764;48.126;11.594;2022-09-27T01:55:31;10.80;99.90
7445;DHT22;3764;48.126;11.594;2022-09-27T01:58:02;10.90;99.90
7445;DHT22;3764;48.126;11.594;2022-09-27T02:00:33;10.80;99.90
7445;DHT22;3764;48.126;11.594;2022-09-27T02:03:07;10.80;99.90
7445;DHT22;3764;48.126;11.594;2022-09-27T02:05:40;10.80;99.90
7445;DHT22;3764;48.126;11.594;2022-09-27T02:08:14;10.70;99.90
7445;DHT22;3764;48.126;11.594;2022-09-27T02:10:44;10.60;99.90
7445;DHT22;3764;48.126;11.594;2022-09-27T02:13:17;10.60;99.90
7445;DHT22;3764;48.126;11.594;2022-09-27T02:15:52;10.50;99.90
7445;DHT22;3764;48.126;11.594;2022-09-27T02:18:27;10.50;99.90
7445;DHT22;3764;48.126;11.594;2022-09-27T02:20:57;10.50;99.90
7445;DHT22;3764;48.126;11.594;2022-09-27T02:23:32;10.50;99.90
7445;DHT22;3764;48.126;11.594;2022-09-27T02:26:07;10.50;99.90
7445;DHT22;3764;48.126;11.594;2022-09-27T02:28:39;10.50;99.90
7445;DHT22;3764;48.126;11.594;2022-09-27T02:31:07;10.50;99.90
7445;DHT22;3764;48.126;11.594;2022-09-27T02:33:39;10.50;99.90
7445;DHT22;3764;48.126;11.594;2022-09-27T02:36:08;10.50;99.90
7445;DHT22;3764;48.126;11.594;2022-09-27T02:38:36;10.40;99.90
7445;DHT22;3764;48.126;11.594;2022-09-27T02:41:10;10.40;99.90
7445;DHT22;3764;48.126;11.594;2022-09-27T02:43:38;10.40;99.90
7445;DHT22;3764;48.126;11.594;2022-09-27T02:46:17;10.40;99.90
7445;DHT22;3764;48.126;11.594;2022-09-27T02:49:00;10.40;99.90
7445;DHT22;3764;48.126;11.594;2022-09-27T02:51:41;10.40;99.90
7445;DHT22;3764;48.126;11.594;2022-09-27T02:54:18;10.40;99.90
7445;DHT22;3764;48.126;11.594;2022-09-27T02:57:00;10.40;99.90
7445;DHT22;3764;48.126;11.594;2022-09-27T02:59:34;10.40;99.90
7445;DHT22;3764;48.126;11.594;2022-09-27T03:02:08;10.40;99.90
7445;DHT22;3764;48.126;11.594;2022-09-27T03:04:42;10.30;99.90
7445;DHT22;3764;48.126;11.594;2022-09-27T03:07:10;10.30;99.90
7445;DHT22;3764;48.126;11.594;2022-09-27T03:09:43;10.30;99.90
7445;DHT22;3764;48.126;11.594;2022-09-27T03:12:11;10.30;99.90
7445;DHT22;3764;48.126;11.594;2022-09-27T03:14:38;10.30;99.90
7445;DHT22;3764;48.126;11.594;2022-09-27T03:17:05;10.30;99.90
7445;DHT22;3764;48.126;11.594;2022-09-27T03:19:32;10.30;99.90
7445;DHT22;3764;48.126;11.594;2022-09-27T03:22:01;10.30;99.90
7445;DHT22;3764;48.126;11.594;2022-09-27T03:24:28;10.30;99.90
7445;DHT22;3764;48.126;11.594;2022-09-27T03:26:55;10.20;99.90
7445;DHT22;3764;48.126;11.594;2022-09-27T03:29:22;10.30;99.90
7445;DHT22;3764;48.126;11.594;2022-09-27T03:31:49;10.20;99.90
7445;DHT22;3764;48.126;11.594;2022-09-27T03:34:16;10.30;99.90
7445;DHT22;3764;48.126;11.594;2022-09-27T03:36:43;10.20;99.90
7445;DHT22;3764;48.126;11.594;2022-09-27T03:39:12;10.20;99.90
7445;DHT22;3764;48.126;11.594;2022-09-27T03:41:39;10.20;99.90
7445;DHT22;3764;48.126;11.594;2022-09-27T03:44:07;10.20;99.90
7445;DHT22;3764;48.126;11.594;2022-09-27T03:46:34;10.20;99.90
7445;DHT22;3764;48.126;11.594;2022-09-27T03:49:01;10.20;99.90
7445;DHT22;3764;48.126;11.594;2022-09-27T03:51:28;10.20;99.90
7445;DHT22;3764;48.126;11.594;2022-09-27T03:53:55;10.20;99.90
7445;DHT22;3764;48.126;11.594;2022-09-27T03:56:24;10.20;99.90
7445;DHT22;3764;48.126;11.594;2022-09-27T03:58:51;10.20;99.90
7445;DHT22;3764;48.126;11.594;2022-09-27T04:01:18;10.30;99.90
7445;DHT22;3764;48.126;11.594;2022-09-27T04:03:45;10.30;99.90
7445;DHT22;3764;48.126;11.594;2022-09-27T04:06:12;10.30;99.90
7445;DHT22;3764;48.126;11.594;2022-09-27T04:08:40;10.30;99.90
7445;DHT22;3764;48.126;11.594;2022-09-27T04:11:07;10.20;99.90
7445;DHT22;3764;48.126;11.594;2022-09-27T04:13:36;10.20;99.90
7445;DHT22;3764;48.126;11.594;2022-09-27T04:16:03;10.20;99.90
7445;DHT22;3764;48.126;11.594;2022-09-27T04:18:30;10.20;99.90
7445;DHT22;3764;48.126;11.594;2022-09-27T04:20:57;10.20;99.90
7445;DHT22;3764;48.126;11.594;2022-09-27T04:23:25;10.20;99.90
7445;DHT22;3764;48.126;11.594;2022-09-27T04:25:52;10.20;99.90
7445;DHT22;3764;48.126;11.594;2022-09-27T04:28:20;10.10;99.90
7445;DHT22;3764;48.126;11.594;2022-09-27T04:30:48;10.10;99.90
7445;DHT22;3764;48.126;11.594;2022-09-27T04:33:15;10.10;99.90
7445;DHT22;3764;48.126;11.594;2022-09-27T04:35:43;10.10;99.90
7445;DHT22;3764;48.126;11.594;2022-09-27T04:38:27;10.10;99.90
7445;DHT22;3764;48.126;11.594;2022-09-27T04:40:54;10.10;99.90
7445;DHT22;3764;48.126;11.594;2022-09-27T04:43:22;10.10;99.90
7445;DHT22;3764;48.126;11.594;2022-09-27T04:45:50;10.10;99.90
7445;DHT22;3764;48.126;11.594;2022-09-27T04:48:17;10.10;99.90
7445;DHT22;3764;48.126;11.594;2022-09-27T04:50:45;10.10;99.90
7445;DHT22;3764;48.126;11.594;2022-09-27T04:53:12;10.10;99.90
7445;DHT22;3764;48.126;11.594;2022-09-27T04:55:44;10.10;99.90
7445;DHT22;3764;48.126;11.594;2022-09-27T04:58:12;10.00;99.90
7445;DHT22;3764;48.126;11.594;2022-09-27T05:00:39;10.10;99.90
7445;DHT22;3764;48.126;11.594;2022-09-27T05:03:09;10.00;99.90
7445;DHT22;3764;48.126;11.594;2022-09-27T05:05:36;10.00;99.90
7445;DHT22;3764;48.126;11.594;2022-09-27T05:08:03;10.00;99.90
7445;DHT22;3764;48.126;11.594;2022-09-27T05:10:30;10.00;99.90
7445;DHT22;3764;48.126;11.594;2022-09-27T05:12:57;10.00;99.90
7445;DHT22;3764;48.126;11.594;2022-09-27T05:15:25;10.00;99.90
7445;DHT22;3764;48.126;11.594;2022-09-27T05:17:52;10.10;99.90
7445;DHT22;3764;48.126;11.594;2022-09-27T05:20:21;10.10;99.90
7445;DHT22;3764;48.126;11.594;2022-09-27T05:22:50;10.10;99.90
7445;DHT22;3764;48.126;11.594;2022-09-27T05:25:17;10.20;99.90
7445;DHT22;3764;48.126;11.594;2022-09-27T05:27:44;10.20;99.90
7445;DHT22;3764;48.126;11.594;2022-09-27T05:30:12;10.20;99.90
7445;DHT22;3764;48.126;11.594;2022-09-27T05:32:41;10.30;99.90
7445;DHT22;3764;48.126;11.594;2022-09-27T05:35:08;10.30;99.90
7445;DHT22;3764;48.126;11.594;2022-09-27T05:37:37;10.30;99.90
7445;DHT22;3764;48.126;11.594;2022-09-27T05:40:06;10.30;99.90
7445;DHT22;3764;48.126;11.594;2022-09-27T05:42:33;10.40;99.90
7445;DHT22;3764;48.126;11.594;2022-09-27T05:45:04;10.40;99.90
7445;DHT22;3764;48.126;11.594;2022-09-27T05:47:32;10.40;99.90
7445;DHT22;3764;48.126;11.594;2022-09-27T05:49:59;10.40;99.90
7445;DHT22;3764;48.126;11.594;2022-09-27T05:52:26;10.30;99.90
7445;DHT22;3764;48.126;11.594;2022-09-27T05:54:55;10.70;99.90
7445;DHT22;3764;48.126;11.594;2022-09-27T05:57:23;10.80;99.90
7445;DHT22;3764;48.126;11.594;2022-09-27T05:59:50;10.90;99.90
7445;DHT22;3764;48.126;11.594;2022-09-27T06:02:17;11.00;99.90
7445;DHT22;3764;48.126;11.594;2022-09-27T06:04:45;11.00;99.90
7445;DHT22;3764;48.126;11.594;2022-09-27T06:07:12;11.00;99.90
7445;DHT22;3764;48.126;11.594;2022-09-27T06:09:39;10.90;99.90
7445;DHT22;3764;48.126;11.594;2022-09-27T06:12:07;10.80;99.90
7445;DHT22;3764;48.126;11.594;2022-09-27T06:14:36;10.90;99.90
7445;DHT22;3764;48.126;11.594;2022-09-27T06:17:04;10.90;99.90
7445;DHT22;3764;48.126;11.594;2022-09-27T06:19:31;10.90;99.90
7445;DHT22;3764;48.126;11.594;2022-09-27T06:22:13;10.90;99.90
7445;DHT22;3764;48.126;11.594;2022-09-27T06:24:46;10.80;99.90
7445;DHT22;3764;48.126;11.594;2022-09-27T06:27:14;10.80;99.90
7445;DHT22;3764;48.126;11.594;2022-09-27T06:29:42;10.70;99.90
7445;DHT22;3764;48.126;11.594;2022-09-27T06:32:09;10.60;99.90
7445;DHT22;3764;48.126;11.594;2022-09-27T06:34:36;10.60;99.90
7445;DHT22;3764;48.126;11.594;2022-09-27T06:37:04;10.60;99.90
7445;DHT22;3764;48.126;11.594;2022-09-27T06:39:31;10.60;99.90
7445;DHT22;3764;48.126;11.594;2022-09-27T06:41:59;10.70;99.90
7445;DHT22;3764;48.126;11.594;2022-09-27T06:44:28;10.70;99.90
7445;DHT22;3764;48.126;11.594;2022-09-27T06:46:55;10.60;99.90
7445;DHT22;3764;48.126;11.594;2022-09-27T06:49:22;10.70;99.90
7445;DHT22;3764;48.126;11.594;2022-09-27T06:51:50;10.70;99.90
7445;DHT22;3764;48.126;11.594;2022-09-27T06:54:18;10.70;99.90
7445;DHT22;3764;48.126;11.594;2022-09-27T06:56:46;10.80;99.90
7445;DHT22;3764;48.126;11.594;2022-09-27T06:59:13;10.80;99.90
7445;DHT22;3764;48.126;11.594;2022-09-27T07:02:00;10.80;99.90
7445;DHT22;3764;48.126;11.594;2022-09-27T07:04:27;10.90;99.90
7445;DHT22;3764;48.126;11.594;2022-09-27T07:06:54;10.80;99.90
7445;DHT22;3764;48.126;11.594;2022-09-27T07:09:21;10.80;99.90
7445;DHT22;3764;48.126;11.594;2022-09-27T07:11:51;10.80;99.90
7445;DHT22;3764;48.126;11.594;2022-09-27T07:14:19;10.90;99.90
7445;DHT22;3764;48.126;11.594;2022-09-27T07:16:47;10.90;99.90
7445;DHT22;3764;48.126;11.594;2022-09-27T07:19:15;10.90;99.90
7445;DHT22;3764;48.126;11.594;2022-09-27T07:21:43;10.90;99.90
7445;DHT22;3764;48.126;11.594;2022-09-27T07:24:10;10.90;99.90
7445;DHT22;3764;48.126;11.594;2022-09-27T07:26:37;11.00;99.90
7445;DHT22;3764;48.126;11.594;2022-09-27T07:29:05;11.00;99.90
7445;DHT22;3764;48.126;11.594;2022-09-27T07:31:32;11.00;99.90
7445;DHT22;3764;48.126;11.594;2022-09-27T07:33:59;11.00;99.90
7445;DHT22;3764;48.126;11.594;2022-09-27T07:36:27;11.10;99.90
7445;DHT22;3764;48.126;11.594;2022-09-27T07:38:57;11.10;99.90
7445;DHT22;3764;48.126;11.594;2022-09-27T07:41:25;11.10;99.90
7445;DHT22;3764;48.126;11.594;2022-09-27T07:43:52;11.10;99.90
7445;DHT22;3764;48.126;11.594;2022-09-27T07:46:19;11.10;99.90
7445;DHT22;3764;48.126;11.594;2022-09-27T07:48:46;11.00;99.90
7445;DHT22;3764;48.126;11.594;2022-09-27T07:51:13;11.10;99.90
7445;DHT22;3764;48.126;11.594;2022-09-27T07:53:42;11.10;99.90
7445;DHT22;3764;48.126;11.594;2022-09-27T07:56:10;11.10;99.90
7445;DHT22;3764;48.126;11.594;2022-09-27T07:58:37;11.10;99.90
7445;DHT22;3764;48.126;11.594;2022-09-27T08:01:05;11.10;99.90
7445;DHT22;3764;48.126;11.594;2022-09-27T08:03:33;11.10;99.90
7445;DHT22;3764;48.126;11.594;2022-09-27T08:06:01;11.10;99.90
7445;DHT22;3764;48.126;11.594;2022-09-27T08:08:29;11.10;99.90
7445;DHT22;3764;48.126;11.594;2022-09-27T08:10:57;11.10;99.90
7445;DHT22;3764;48.126;11.594;2022-09-27T08:13:24;11.10;99.90
7445;DHT22;3764;48.126;11.594;2022-09-27T08:15:52;11.10;99.90
7445;DHT22;3764;48.126;11.594;2022-09-27T08:18:19;11.20;99.90
7445;DHT22;3764;48.126;11.594;2022-09-27T08:20:49;11.10;99.90
7445;DHT22;3764;48.126;11.594;2022-09-27T08:23:16;11.00;99.90
7445;DHT22;3764;48.126;11.594;2022-09-27T08:25:43;10.90;99.90
7445;DHT22;3764;48.126;11.594;2022-09-27T08:28:12;10.80;99.90
7445;DHT22;3764;48.126;11.594;2022-09-27T08:30:39;10.70;99.90
7445;DHT22;3764;48.126;11.594;2022-09-27T08:33:07;10.60;99.90
7445;DHT22;3764;48.126;11.594;2022-09-27T08:35:34;10.50;99.90
7445;DHT22;3764;48.126;11.594;2022-09-27T08:38:02;10.40;99.90
7445;DHT22;3764;48.126;11.594;2022-09-27T08:40:39;10.30;99.90
7445;DHT22;3764;48.126;11.594;2022-09-27T08:43:17;10.30;99.90
7445;DHT22;3764;48.126;11.594;2022-09-27T08:45:54;10.30;99.90
7445;DHT22;3764;48.126;11.594;2022-09-27T08:48:26;10.20;99.90
7445;DHT22;3764;48.126;11.594;2022-09-27T08:50:54;10.10;99.90
7445;DHT22;3764;48.126;11.594;2022-09-27T08:53:26;10.20;99.90
7445;DHT22;3764;48.126;11.594;2022-09-27T08:55:55;10.10;99.90
7445;DHT22;3764;48.126;11.594;2022-09-27T08:58:27;10.10;99.90
7445;DHT22;3764;48.126;11.594;2022-09-27T09:00:58;10.00;99.90
7445;DHT22;3764;48.126;11.594;2022-09-27T09:03:27;10.00;99.90
7445;DHT22;3764;48.126;11.594;2022-09-27T09:06:08;10.10;99.90
7445;DHT22;3764;48.126;11.594;2022-09-27T09:08:44;10.20;99.90
7445;DHT22;3764;48.126;11.594;2022-09-27T09:11:23;10.30;99.90
7445;DHT22;3764;48.126;11.594;2022-09-27T09:14:36;10.30;99.90
7445;DHT22;3764;48.126;11.594;2022-09-27T09:17:16;10.30;99.90
7445;DHT22;3764;48.126;11.594;2022-09-27T09:19:56;10.30;99.90
7445;DHT22;3764;48.126;11.594;2022-09-27T09:22:41;10.40;99.90
7445;DHT22;3764;48.126;11.594;2022-09-27T09:25:20;10.40;99.90
7445;DHT22;3764;48.126;11.594;2022-09-27T09:27:57;10.40;99.90
7445;DHT22;3764;48.126;11.594;2022-09-27T09:30:32;10.50;99.90
7445;DHT22;3764;48.126;11.594;2022-09-27T09:33:18;10.50;99.90
7445;DHT22;3764;48.126;11.594;2022-09-27T09:35:51;10.50;99.90
7445;DHT22;3764;48.126;11.594;2022-09-27T09:38:28;10.50;99.90
7445;DHT22;3764;48.126;11.594;2022-09-27T09:41:04;10.60;99.90
7445;DHT22;3764;48.126;11.594;2022-09-27T09:43:36;10.60;99.90
7445;DHT22;3764;48.126;11.594;2022-09-27T09:46:10;10.60;99.90
7445;DHT22;3764;48.126;11.594;2022-09-27T09:48:44;10.70;99.90
7445;DHT22;3764;48.126;11.594;2022-09-27T09:51:17;10.70;99.90
7445;DHT22;3764;48.126;11.594;2022-09-27T09:53:52;10.70;99.90
7445;DHT22;3764;48.126;11.594;2022-09-27T09:56:23;10.70;99.90
7445;DHT22;3764;48.126;11.594;2022-09-27T09:58:56;10.60;99.90
7445;DHT22;3764;48.126;11.594;2022-09-27T10:01:35;10.60;99.90
7445;DHT22;3764;48.126;11.594;2022-09-27T10:04:04;10.60;99.90
7445;DHT22;3764;48.126;11.594;2022-09-27T10:06:31;10.60;99.90
7445;DHT22;3764;48.126;11.594;2022-09-27T10:08:58;10.70;99.90
7445;DHT22;3764;48.126;11.594;2022-09-27T10:11:30;10.70;99.90
7445;DHT22;3764;48.126;11.594;2022-09-27T10:14:00;10.70;99.90
7445;DHT22;3764;48.126;11.594;2022-09-27T10:16:27;10.70;99.90
7445;DHT22;3764;48.126;11.594;2022-09-27T10:18:59;10.70;99.90
7445;DHT22;3764;48.126;11.594;2022-09-27T10:21:29;10.70;99.90
7445;DHT22;3764;48.126;11.594;2022-09-27T10:24:06;10.70;99.90
7445;DHT22;3764;48.126;11.594;2022-09-27T10:26:35;10.70;99.90
7445;DHT22;3764;48.126;11.594;2022-09-27T10:29:24;10.70;99.90
7445;DHT22;3764;48.126;11.594;2022-09-27T10:31:55;10.60;99.90
7445;DHT22;3764;48.126;11.594;2022-09-27T10:34:33;10.60;99.90
7445;DHT22;3764;48.126;11.594;2022-09-27T10:37:03;10.60;99.90
7445;DHT22;3764;48.126;11.594;2022-09-27T10:39:31;10.60;99.90
7445;DHT22;3764;48.126;11.594;2022-09-27T10:41:58;10.60;99.90
7445;DHT22;3764;48.126;11.594;2022-09-27T10:44:27;10.50;99.90
7445;DHT22;3764;48.126;11.594;2022-09-27T10:46:57;10.50;99.90
7445;DHT22;3764;48.126;11.594;2022-09-27T10:49:27;10.50;99.90
7445;DHT22;3764;48.126;11.594;2022-09-27T10:51:58;10.50;99.90
7445;DHT22;3764;48.126;11.594;2022-09-27T10:54:28;10.50;99.90
7445;DHT22;3764;48.126;11.594;2022-09-27T10:57:01;10.40;99.90
7445;DHT22;3764;48.126;11.594;2022-09-27T10:59:32;10.40;99.90
7445;DHT22;3764;48.126;11.594;2022-09-27T11:02:00;10.30;99.90
7445;DHT22;3764;48.126;11.594;2022-09-27T11:04:29;10.30;99.90
7445;DHT22;3764;48.126;11.594;2022-09-27T11:07:13;10.30;99.90
7445;DHT22;3764;48.126;11.594;2022-09-27T11:09:46;10.40;99.90
7445;DHT22;3764;48.126;11.594;2022-09-27T11:12:14;10.40;99.90
7445;DHT22;3764;48.126;11.594;2022-09-27T11:14:50;10.50;99.90
7445;DHT22;3764;48.126;11.594;2022-09-27T11:17:25;10.60;99.90
7445;DHT22;3764;48.126;11.594;2022-09-27T11:20:02;10.60;99.90
7445;DHT22;3764;48.126;11.594;2022-09-27T11:22:57;10.70;99.90
7445;DHT22;3764;48.126;11.594;2022-09-27T11:25:33;10.80;99.90
7445;DHT22;3764;48.126;11.594;2022-09-27T11:28:11;10.80;99.90
7445;DHT22;3764;48.126;11.594;2022-09-27T11:30:45;10.90;99.90
7445;DHT22;3764;48.126;11.594;2022-09-27T11:36:21;10.80;99.90
7445;DHT22;3764;48.126;11.594;2022-09-27T11:39:01;10.70;99.90
7445;DHT22;3764;48.126;11.594;2022-09-27T11:41:41;10.60;99.90
7445;DHT22;3764;48.126;11.594;2022-09-27T11:44:31;10.50;99.90
7445;DHT22;3764;48.126;11.594;2022-09-27T11:47:15;10.40;99.90
7445;DHT22;3764;48.126;11.594;2022-09-27T11:50:02;10.30;99.90
7445;DHT22;3764;48.126;11.594;2022-09-27T11:52:46;10.40;99.90
7445;DHT22;3764;48.126;11.594;2022-09-27T11:55:30;10.50;99.90
7445;DHT22;3764;48.126;11.594;2022-09-27T11:58:03;10.60;99.90
7445;DHT22;3764;48.126;11.594;2022-09-27T12:00:39;10.70;99.90
7445;DHT22;3764;48.126;11.594;2022-09-27T12:06:21;10.80;99.90
7445;DHT22;3764;48.126;11.594;2022-09-27T12:09:00;10.70;99.90
7445;DHT22;3764;48.126;11.594;2022-09-27T12:11:35;10.60;99.90
7445;DHT22;3764;48.126;11.594;2022-09-27T12:14:06;10.60;99.90
7445;DHT22;3764;48.126;11.594;2022-09-27T12:16:36;10.60;99.90
7445;DHT22;3764;48.126;11.594;2022-09-27T12:19:12;10.60;99.90
7445;DHT22;3764;48.126;11.594;2022-09-27T12:21:41;10.60;99.90
7445;DHT22;3764;48.126;11.594;2022-09-27T12:24:14;10.70;99.90
7445;DHT22;3764;48.126;11.594;2022-09-27T12:26:47;10.70;99.90
7445;DHT22;3764;48.126;11.594;2022-09-27T12:29:19;10.80;99.90
7445;DHT22;3764;48.126;11.594;2022-09-27T12:31:53;10.80;99.90
7445;DHT22;3764;48.126;11.594;2022-09-27T12:34:25;10.90;99.90
7445;DHT22;3764;48.126;11.594;2022-09-27T12:36:59;10.80;99.90
7445;DHT22;3764;48.126;11.594;2022-09-27T12:39:36;10.80;99.90
7445;DHT22;3764;48.126;11.594;2022-09-27T12:42:13;10.80;99.90
7445;DHT22;3764;48.126;11.594;2022-09-27T12:44:42;10.90;99.90
7445;DHT22;3764;48.126;11.594;2022-09-27T12:47:15;10.90;99.90
7445;DHT22;3764;48.126;11.594;2022-09-27T12:49:51;10.90;99.90
7445;DHT22;3764;48.126;11.594;2022-09-27T12:52:22;10.90;99.90
7445;DHT22;3764;48.126;11.594;2022-09-27T12:55:00;11.00;99.90
7445;DHT22;3764;48.126;11.594;2022-09-27T12:57:40;11.10;99.90
7445;DHT22;3764;48.126;11.594;2022-09-27T13:00:10;11.20;99.90
7445;DHT22;3764;48.126;11.594;2022-09-27T13:03:01;11.30;99.90
7445;DHT22;3764;48.126;11.594;2022-09-27T13:09:03;11.50;99.90
7445;DHT22;3764;48.126;11.594;2022-09-27T13:11:41;11.60;99.90
7445;DHT22;3764;48.126;11.594;2022-09-27T13:14:16;11.60;99.90
7445;DHT22;3764;48.126;11.594;2022-09-27T13:16:46;11.70;99.90
7445;DHT22;3764;48.126;11.594;2022-09-27T13:19:36;11.70;99.90
7445;DHT22;3764;48.126;11.594;2022-09-27T13:22:04;11.70;99.90
7445;DHT22;3764;48.126;11.594;2022-09-27T13:24:44;11.80;99.90
7445;DHT22;3764;48.126;11.594;2022-09-27T13:27:40;11.90;99.90
7445;DHT22;3764;48.126;11.594;2022-09-27T13:30:43;12.00;99.90
7445;DHT22;3764;48.126;11.594;2022-09-27T13:33:32;12.20;99.90
7445;DHT22;3764;48.126;11.594;2022-09-27T13:36:07;12.20;99.90
7445;DHT22;3764;48.126;11.594;2022-09-27T13:38:52;12.10;99.90
7445;DHT22;3764;48.126;11.594;2022-09-27T13:41:22;12.20;99.90
7445;DHT22;3764;48.126;11.594;2022-09-27T13:43:57;12.30;99.90
7445;DHT22;3764;48.126;11.594;2022-09-27T13:46:32;12.40;99.90
7445;DHT22;3764;48.126;11.594;2022-09-27T13:49:03;12.50;99.90
7445;DHT22;3764;48.126;11.594;2022-09-27T13:51:40;12.50;99.90
7445;DHT22;3764;48.126;11.594;2022-09-27T13:54:37;12.50;99.90
7445;DHT22;3764;48.126;11.594;2022-09-27T13:57:43;12.40;99.90
7445;DHT22;3764;48.126;11.594;2022-09-27T13:59:54;12.40;99.90
7445;DHT22;3764;48.126;11.594;2022-09-27T14:02:26;12.50;99.90
7445;DHT22;3764;48.126;11.594;2022-09-27T14:04:55;12.60;99.90
7445;DHT22;3764;48.126;11.594;2022-09-27T14:07:26;12.60;99.90
7445;DHT22;3764;48.126;11.594;2022-09-27T14:09:57;12.40;99.90
7445;DHT22;3764;48.126;11.594;2022-09-27T14:12:28;12.10;99.90
7445;DHT22;3764;48.126;11.594;2022-09-27T14:14:58;11.80;99.90
7445;DHT22;3764;48.126;11.594;2022-09-27T14:17:27;11.50;99.90
7445;DHT22;3764;48.126;11.594;2022-09-27T14:19:56;11.30;99.90
7445;DHT22;3764;48.126;11.594;2022-09-27T14:22:23;11.20;99.90
7445;DHT22;3764;48.126;11.594;2022-09-27T14:24:51;11.10;99.90
7445;DHT22;3764;48.126;11.594;2022-09-27T14:27:20;11.00;99.90
7445;DHT22;3764;48.126;11.594;2022-09-27T14:29:50;11.00;99.90
7445;DHT22;3764;48.126;11.594;2022-09-27T14:32:19;11.10;99.90
7445;DHT22;3764;48.126;11.594;2022-09-27T14:35:02;11.20;99.90
7445;DHT22;3764;48.126;11.594;2022-09-27T14:37:30;11.30;99.90
7445;DHT22;3764;48.126;11.594;2022-09-27T14:39:58;11.40;99.90
7445;DHT22;3764;48.126;11.594;2022-09-27T14:42:27;11.40;99.90
7445;DHT22;3764;48.126;11.594;2022-09-27T14:45:03;11.50;99.90
7445;DHT22;3764;48.126;11.594;2022-09-27T14:47:31;11.50;99.90
7445;DHT22;3764;48.126;11.594;2022-09-27T14:50:07;11.50;99.90
7445;DHT22;3764;48.126;11.594;2022-09-27T14:52:39;11.30;99.90
7445;DHT22;3764;48.126;11.594;2022-09-27T14:55:09;11.20;99.90
7445;DHT22;3764;48.126;11.594;2022-09-27T14:57:37;11.10;99.90
7445;DHT22;3764;48.126;11.594;2022-09-27T15:00:16;11.10;99.90
7445;DHT22;3764;48.126;11.594;2022-09-27T15:02:44;11.00;99.90
7445;DHT22;3764;48.126;11.594;2022-09-27T15:05:16;11.00;99.90
7445;DHT22;3764;48.126;11.594;2022-09-27T15:07:44;10.90;99.90
7445;DHT22;3764;48.126;11.594;2022-09-27T15:10:14;11.00;99.90
7445;DHT22;3764;48.126;11.594;2022-09-27T15:12:44;10.90;99.90
7445;DHT22;3764;48.126;11.594;2022-09-27T15:15:14;10.90;99.90
7445;DHT22;3764;48.126;11.594;2022-09-27T15:17:43;10.90;99.90
7445;DHT22;3764;48.126;11.594;2022-09-27T15:20:34;10.80;99.90
7445;DHT22;3764;48.126;11.594;2022-09-27T15:23:02;10.80;99.90
7445;DHT22;3764;48.126;11.594;2022-09-27T15:25:31;10.80;99.90
7445;DHT22;3764;48.126;11.594;2022-09-27T15:28:02;10.80;99.90
7445;DHT22;3764;48.126;11.594;2022-09-27T15:30:34;10.70;99.90
7445;DHT22;3764;48.126;11.594;2022-09-27T15:33:02;10.80;99.90
7445;DHT22;3764;48.126;11.594;2022-09-27T15:35:30;10.80;99.90
7445;DHT22;3764;48.126;11.594;2022-09-27T15:38:12;10.80;99.90
7445;DHT22;3764;48.126;11.594;2022-09-27T15:41:08;10.80;99.90
7445;DHT22;3764;48.126;11.594;2022-09-27T15:43:38;10.80;99.90
7445;DHT22;3764;48.126;11.594;2022-09-27T15:51:59;11.00;99.90
7445;DHT22;3764;48.126;11.594;2022-09-27T15:54:29;11.00;99.90
7445;DHT22;3764;48.126;11.594;2022-09-27T15:57:01;11.00;99.90
7445;DHT22;3764;48.126;11.594;2022-09-27T15:59:31;11.00;99.90
7445;DHT22;3764;48.126;11.594;2022-09-27T16:02:01;11.00;99.90
7445;DHT22;3764;48.126;11.594;2022-09-27T16:04:28;11.00;99.90
7445;DHT22;3764;48.126;11.594;2022-09-27T16:06:58;10.90;99.90
7445;DHT22;3764;48.126;11.594;2022-09-27T16:09:28;10.90;99.90
7445;DHT22;3764;48.126;11.594;2022-09-27T16:11:55;10.90;99.90
7445;DHT22;3764;48.126;11.594;2022-09-27T16:14:22;10.90;99.90
7445;DHT22;3764;48.126;11.594;2022-09-27T16:16:51;10.90;99.90
7445;DHT22;3764;48.126;11.594;2022-09-27T16:19:18;10.90;99.90
7445;DHT22;3764;48.126;11.594;2022-09-27T16:21:46;10.90;99.90
7445;DHT22;3764;48.126;11.594;2022-09-27T16:24:13;10.90;99.90
7445;DHT22;3764;48.126;11.594;2022-09-27T16:26:43;10.90;99.90
7445;DHT22;3764;48.126;11.594;2022-09-27T16:29:11;11.00;99.90
7445;DHT22;3764;48.126;11.594;2022-09-27T16:31:38;11.00;99.90